sensor_id;sensor_type;location;lat;lon;timestamp;pressure;altitude;pressure_sealevel;temperature;humidity
69624;BME280;56843;52.020;5.670;2022-10-16T00:00:51;100788.00;;;9.45;92.82
69624;BME280;56843;52.020;5.670;2022-10-16T00:02:22;100789.41;;;9.42;92.44
69624;BME280;56843;52.020;5.670;2022-10-16T00:03:53;100782.03;;;9.39;92.48
69624;BME280;56843;52.020;5.670;2022-10-16T00:05:24;100783.16;;;9.38;92.81
69624;BME280;56843;52.020;5.670;2022-10-16T00:06:55;100784.84;;;9.34;93.03
69624;BME280;56843;52.020;5.670;2022-10-16T00:08:25;100782.19;;;9.34;93.03
69624;BME280;56843;52.020;5.670;2022-10-16T00:09:56;100779.22;;;9.36;92.80
69624;BME280;56843;52.020;5.670;2022-10-16T00:11:29;100783.44;;;9.37;92.78
69624;BME280;56843;52.020;5.670;2022-10-16T00:13:00;100788.78;;;9.37;92.86
69624;BME280;56843;52.020;5.670;2022-10-16T00:14:30;100781.09;;;9.35;92.77
69624;BME280;56843;52.020;5.670;2022-10-16T00:16:01;100785.63;;;9.35;92.97
69624;BME280;56843;52.020;5.670;2022-10-16T00:17:32;100794.75;;;9.34;93.26
69624;BME280;56843;52.020;5.670;2022-10-16T00:19:02;100798.16;;;9.34;93.05
69624;BME280;56843;52.020;5.670;2022-10-16T00:20:34;100799.28;;;9.33;93.08
69624;BME280;56843;52.020;5.670;2022-10-16T00:22:05;100798.81;;;9.31;93.00
69624;BME280;56843;52.020;5.670;2022-10-16T00:23:35;100791.91;;;9.30;92.96
69624;BME280;56843;52.020;5.670;2022-10-16T00:25:06;100790.81;;;9.31;93.25
69624;BME280;56843;52.020;5.670;2022-10-16T00:26:38;100789.25;;;9.30;93.07
69624;BME280;56843;52.020;5.670;2022-10-16T00:28:09;100778.28;;;9.32;93.18
69624;BME280;56843;52.020;5.670;2022-10-16T00:29:39;100793.97;;;9.33;93.20
69624;BME280;56843;52.020;5.670;2022-10-16T00:31:11;100792.09;;;9.34;93.16
69624;BME280;56843;52.020;5.670;2022-10-16T00:32:42;100795.03;;;9.32;93.21
69624;BME280;56843;52.020;5.670;2022-10-16T00:34:12;100795.03;;;9.32;93.19
69624;BME280;56843;52.020;5.670;2022-10-16T00:35:43;100790.81;;;9.31;93.14
69624;BME280;56843;52.020;5.670;2022-10-16T00:37:13;100785.16;;;9.33;93.26
69624;BME280;56843;52.020;5.670;2022-10-16T00:38:44;100798.81;;;9.31;93.09
69624;BME280;56843;52.020;5.670;2022-10-16T00:40:15;100790.81;;;9.31;93.15
69624;BME280;56843;52.020;5.670;2022-10-16T00:41:46;100789.41;;;9.34;93.26
69624;BME280;56843;52.020;5.670;2022-10-16T00:43:33;100788.63;;;9.33;93.23
69624;BME280;56843;52.020;5.670;2022-10-16T00:45:04;100774.03;;;9.31;93.11
69624;BME280;56843;52.020;5.670;2022-10-16T00:46:38;100780.16;;;9.31;93.20
69624;BME280;56843;52.020;5.670;2022-10-16T00:48:12;100792.84;;;9.34;93.46
69624;BME280;56843;52.020;5.670;2022-10-16T00:49:44;100789.25;;;9.39;93.29
69624;BME280;56843;52.020;5.670;2022-10-16T00:51:15;100785.97;;;9.42;93.21
69624;BME280;56843;52.020;5.670;2022-10-16T00:52:49;100789.22;;;9.47;92.93
69624;BME280;56843;52.020;5.670;2022-10-16T00:54:25;100774.97;;;9.52;93.09
69624;BME280;56843;52.020;5.670;2022-10-16T00:55:56;100775.91;;;9.56;92.88
69624;BME280;56843;52.020;5.670;2022-10-16T00:57:27;100784.19;;;9.63;92.70
69624;BME280;56843;52.020;5.670;2022-10-16T00:58:58;100790.50;;;9.67;92.57
69624;BME280;56843;52.020;5.670;2022-10-16T01:02:13;100784.03;;;9.77;92.25
69624;BME280;56843;52.020;5.670;2022-10-16T01:03:45;100798.78;;;9.83;92.26
69624;BME280;56843;52.020;5.670;2022-10-16T01:05:16;100790.91;;;9.86;92.12
69624;BME280;56843;52.020;5.670;2022-10-16T01:08:38;100796.22;;;9.95;92.03
69624;BME280;56843;52.020;5.670;2022-10-16T01:10:35;100793.69;;;9.98;91.91
69624;BME280;56843;52.020;5.670;2022-10-16T01:14:15;100793.84;;;10.02;91.78
69624;BME280;56843;52.020;5.670;2022-10-16T01:16:01;100795.09;;;10.04;91.60
69624;BME280;56843;52.020;5.670;2022-10-16T01:20:03;100791.50;;;10.09;91.48
69624;BME280;56843;52.020;5.670;2022-10-16T01:21:37;100805.59;;;10.09;91.58
69624;BME280;56843;52.020;5.670;2022-10-16T01:24:55;100794.44;;;10.07;91.71
69624;BME280;56843;52.020;5.670;2022-10-16T01:28:28;100789.28;;;10.11;91.91
69624;BME280;56843;52.020;5.670;2022-10-16T01:31:48;100796.50;;;10.19;91.42
69624;BME280;56843;52.020;5.670;2022-10-16T01:33:24;100793.19;;;10.22;91.43
69624;BME280;56843;52.020;5.670;2022-10-16T01:35:22;100800.25;;;10.26;91.17
69624;BME280;56843;52.020;5.670;2022-10-16T01:37:02;100795.81;;;10.30;91.18
69624;BME280;56843;52.020;5.670;2022-10-16T01:38:37;100789.06;;;10.33;91.33
69624;BME280;56843;52.020;5.670;2022-10-16T01:40:11;100795.31;;;10.37;91.17
69624;BME280;56843;52.020;5.670;2022-10-16T01:41:48;100795.47;;;10.41;90.97
69624;BME280;56843;52.020;5.670;2022-10-16T01:43:28;100790.13;;;10.41;90.83
69624;BME280;56843;52.020;5.670;2022-10-16T01:45:02;100794.03;;;10.43;91.13
69624;BME280;56843;52.020;5.670;2022-10-16T01:46:39;100800.28;;;10.47;90.66
69624;BME280;56843;52.020;5.670;2022-10-16T01:48:13;100805.34;;;10.49;91.05
69624;BME280;56843;52.020;5.670;2022-10-16T01:49:46;100805.34;;;10.49;91.02
69624;BME280;56843;52.020;5.670;2022-10-16T01:51:19;100806.59;;;10.51;91.05
69624;BME280;56843;52.020;5.670;2022-10-16T01:52:51;100802.78;;;10.52;90.93
69624;BME280;56843;52.020;5.670;2022-10-16T01:54:26;100800.13;;;10.52;90.61
69624;BME280;56843;52.020;5.670;2022-10-16T01:55:58;100794.78;;;10.52;90.82
69624;BME280;56843;52.020;5.670;2022-10-16T01:57:31;100787.56;;;10.53;91.02
69624;BME280;56843;52.020;5.670;2022-10-16T01:59:07;100791.78;;;10.54;91.00
69624;BME280;56843;52.020;5.670;2022-10-16T02:00:43;100804.38;;;10.53;90.70
69624;BME280;56843;52.020;5.670;2022-10-16T02:02:17;100799.03;;;10.53;91.14
69624;BME280;56843;52.020;5.670;2022-10-16T02:03:53;100799.66;;;10.50;90.80
69624;BME280;56843;52.020;5.670;2022-10-16T02:05:34;100798.75;;;10.46;91.12
69624;BME280;56843;52.020;5.670;2022-10-16T02:07:07;100785.56;;;10.41;91.14
69624;BME280;56843;52.020;5.670;2022-10-16T02:08:38;100780.09;;;10.38;91.27
69624;BME280;56843;52.020;5.670;2022-10-16T02:10:10;100776.50;;;10.33;91.57
69624;BME280;56843;52.020;5.670;2022-10-16T02:11:41;100780.44;;;10.27;91.69
69624;BME280;56843;52.020;5.670;2022-10-16T02:13:23;100777.66;;;10.24;91.63
69624;BME280;56843;52.020;5.670;2022-10-16T02:14:56;100775.16;;;10.19;91.97
69624;BME280;56843;52.020;5.670;2022-10-16T02:16:36;100792.41;;;10.21;92.11
69624;BME280;56843;52.020;5.670;2022-10-16T02:18:09;100798.06;;;10.20;92.40
69624;BME280;56843;52.020;5.670;2022-10-16T02:19:41;100802.28;;;10.21;92.38
69624;BME280;56843;52.020;5.670;2022-10-16T02:21:43;100788.94;;;10.21;91.91
69624;BME280;56843;52.020;5.670;2022-10-16T02:23:19;100799.16;;;10.19;92.15
69624;BME280;56843;52.020;5.670;2022-10-16T02:25:05;100799.16;;;10.19;92.44
69624;BME280;56843;52.020;5.670;2022-10-16T02:26:47;100804.50;;;10.19;92.36
69624;BME280;56843;52.020;5.670;2022-10-16T02:28:34;100808.41;;;10.21;92.33
69624;BME280;56843;52.020;5.670;2022-10-16T02:30:13;100814.53;;;10.22;92.16
69624;BME280;56843;52.020;5.670;2022-10-16T02:31:47;100810.75;;;10.23;92.19
69624;BME280;56843;52.020;5.670;2022-10-16T02:33:21;100808.41;;;10.21;92.08
69624;BME280;56843;52.020;5.670;2022-10-16T02:34:54;100806.53;;;10.22;92.07
69624;BME280;56843;52.020;5.670;2022-10-16T02:36:26;100807.63;;;10.21;92.18
69624;BME280;56843;52.020;5.670;2022-10-16T02:37:57;100810.75;;;10.23;92.13
69624;BME280;56843;52.020;5.670;2022-10-16T02:39:28;100816.44;;;10.21;92.20
69624;BME280;56843;52.020;5.670;2022-10-16T02:41:01;100806.53;;;10.22;92.46
69624;BME280;56843;52.020;5.670;2022-10-16T02:42:36;100801.66;;;10.24;92.44
69624;BME280;56843;52.020;5.670;2022-10-16T02:44:07;100806.69;;;10.25;92.34
69624;BME280;56843;52.020;5.670;2022-10-16T02:45:38;100812.47;;;10.27;92.42
69624;BME280;56843;52.020;5.670;2022-10-16T02:47:08;100806.84;;;10.29;92.34
69624;BME280;56843;52.020;5.670;2022-10-16T02:48:39;100808.84;;;10.32;92.01
69624;BME280;56843;52.020;5.670;2022-10-16T02:50:09;100810.09;;;10.34;92.20
69624;BME280;56843;52.020;5.670;2022-10-16T02:51:40;100813.22;;;10.37;91.84
69624;BME280;56843;52.020;5.670;2022-10-16T02:53:10;100804.13;;;10.38;91.97
69624;BME280;56843;52.020;5.670;2022-10-16T02:54:41;100813.06;;;10.42;91.69
69624;BME280;56843;52.020;5.670;2022-10-16T02:56:11;100810.84;;;10.44;91.97
69624;BME280;56843;52.020;5.670;2022-10-16T02:57:42;100815.84;;;10.45;91.95
69624;BME280;56843;52.020;5.670;2022-10-16T02:59:13;100814.44;;;10.48;91.89
69624;BME280;56843;52.020;5.670;2022-10-16T03:00:44;100820.25;;;10.50;91.57
69624;BME280;56843;52.020;5.670;2022-10-16T03:02:14;100811.94;;;10.51;91.65
69624;BME280;56843;52.020;5.670;2022-10-16T03:03:45;100825.41;;;10.55;91.67
69624;BME280;56843;52.020;5.670;2022-10-16T03:05:15;100813.63;;;10.56;91.38
69624;BME280;56843;52.020;5.670;2022-10-16T03:06:46;100813.31;;;10.57;91.65
69624;BME280;56843;52.020;5.670;2022-10-16T03:08:17;100808.28;;;10.56;91.40
69624;BME280;56843;52.020;5.670;2022-10-16T03:09:47;100807.34;;;10.52;91.45
69624;BME280;56843;52.020;5.670;2022-10-16T03:11:18;100808.63;;;10.46;91.47
69624;BME280;56843;52.020;5.670;2022-10-16T03:12:48;100806.78;;;10.38;91.64
69624;BME280;56843;52.020;5.670;2022-10-16T03:14:19;100816.84;;;10.32;92.08
69624;BME280;56843;52.020;5.670;2022-10-16T03:15:49;100808.25;;;10.26;92.17
69624;BME280;56843;52.020;5.670;2022-10-16T03:17:20;100810.47;;;10.24;92.44
69624;BME280;56843;52.020;5.670;2022-10-16T03:18:50;100812.00;;;10.25;92.40
69624;BME280;56843;52.020;5.670;2022-10-16T03:20:21;100821.91;;;10.25;92.54
69624;BME280;56843;52.020;5.670;2022-10-16T03:21:51;100813.88;;;10.25;92.47
69624;BME280;56843;52.020;5.670;2022-10-16T03:23:22;100822.69;;;10.25;92.29
69624;BME280;56843;52.020;5.670;2022-10-16T03:24:52;100828.81;;;10.26;92.20
69624;BME280;56843;52.020;5.670;2022-10-16T03:26:22;100829.91;;;10.25;92.34
69624;BME280;56843;52.020;5.670;2022-10-16T03:27:53;100825.34;;;10.25;92.27
69624;BME280;56843;52.020;5.670;2022-10-16T03:29:24;100831.47;;;10.26;92.30
69624;BME280;56843;52.020;5.670;2022-10-16T03:30:55;100819.22;;;10.25;92.50
69624;BME280;56843;52.020;5.670;2022-10-16T03:32:26;100820.81;;;10.26;92.32
69624;BME280;56843;52.020;5.670;2022-10-16T03:33:58;100822.38;;;10.27;92.37
69624;BME280;56843;52.020;5.670;2022-10-16T03:35:29;100819.38;;;10.28;92.54
69624;BME280;56843;52.020;5.670;2022-10-16T03:37:00;100823.94;;;10.28;92.25
69624;BME280;56843;52.020;5.670;2022-10-16T03:38:30;100820.19;;;10.29;92.34
69624;BME280;56843;52.020;5.670;2022-10-16T03:40:01;100831.63;;;10.29;92.32
69624;BME280;56843;52.020;5.670;2022-10-16T03:41:31;100827.06;;;10.30;92.18
69624;BME280;56843;52.020;5.670;2022-10-16T03:43:02;100836.97;;;10.29;92.27
69624;BME280;56843;52.020;5.670;2022-10-16T03:44:32;100837.75;;;10.30;92.15
69624;BME280;56843;52.020;5.670;2022-10-16T03:46:03;100834.75;;;10.31;92.13
69624;BME280;56843;52.020;5.670;2022-10-16T03:47:33;100838.22;;;10.32;92.48
69624;BME280;56843;52.020;5.670;2022-10-16T03:49:03;100835.06;;;10.30;92.33
69624;BME280;56843;52.020;5.670;2022-10-16T03:50:34;100839.78;;;10.33;91.90
69624;BME280;56843;52.020;5.670;2022-10-16T03:52:04;100829.09;;;10.33;92.31
69624;BME280;56843;52.020;5.670;2022-10-16T03:53:35;100837.41;;;10.31;92.14
69624;BME280;56843;52.020;5.670;2022-10-16T03:55:06;100828.94;;;10.29;92.18
69624;BME280;56843;52.020;5.670;2022-10-16T03:56:36;100828.94;;;10.29;92.39
69624;BME280;56843;52.020;5.670;2022-10-16T03:58:07;100819.38;;;10.28;92.32
69624;BME280;56843;52.020;5.670;2022-10-16T03:59:37;100828.47;;;10.27;92.45
69624;BME280;56843;52.020;5.670;2022-10-16T04:01:08;100819.56;;;10.23;92.30
69624;BME280;56843;52.020;5.670;2022-10-16T04:02:39;100825.22;;;10.22;92.54
69624;BME280;56843;52.020;5.670;2022-10-16T04:04:10;100823.19;;;10.19;92.47
69624;BME280;56843;52.020;5.670;2022-10-16T04:05:40;100838.72;;;10.17;92.47
69624;BME280;56843;52.020;5.670;2022-10-16T04:07:11;100843.91;;;10.13;92.44
69624;BME280;56843;52.020;5.670;2022-10-16T04:08:43;100842.19;;;10.09;92.40
69624;BME280;56843;52.020;5.670;2022-10-16T04:10:13;100852.41;;;10.07;92.75
69624;BME280;56843;52.020;5.670;2022-10-16T04:11:44;100845.81;;;10.04;92.82
69624;BME280;56843;52.020;5.670;2022-10-16T04:13:14;100853.34;;;10.02;92.95
69624;BME280;56843;52.020;5.670;2022-10-16T04:14:45;100850.22;;;10.00;93.05
69624;BME280;56843;52.020;5.670;2022-10-16T04:16:15;100856.00;;;10.02;92.85
69624;BME280;56843;52.020;5.670;2022-10-16T04:17:46;100868.69;;;10.05;92.80
69624;BME280;56843;52.020;5.670;2022-10-16T04:19:16;100858.50;;;10.07;92.99
69624;BME280;56843;52.020;5.670;2022-10-16T04:20:47;100874.66;;;10.11;92.93
69624;BME280;56843;52.020;5.670;2022-10-16T04:22:17;100864.47;;;10.13;92.76
69624;BME280;56843;52.020;5.670;2022-10-16T04:23:48;100864.59;;;10.16;92.51
69624;BME280;56843;52.020;5.670;2022-10-16T04:25:19;100861.66;;;10.18;92.74
69624;BME280;56843;52.020;5.670;2022-10-16T04:26:50;100865.88;;;10.19;92.63
69624;BME280;56843;52.020;5.670;2022-10-16T04:28:20;100875.13;;;10.21;92.62
69624;BME280;56843;52.020;5.670;2022-10-16T04:29:51;100871.69;;;10.21;92.54
69624;BME280;56843;52.020;5.670;2022-10-16T04:31:21;100876.72;;;10.22;92.29
69624;BME280;56843;52.020;5.670;2022-10-16T04:32:52;100875.59;;;10.23;92.33
69624;BME280;56843;52.020;5.670;2022-10-16T04:34:23;100879.06;;;10.24;92.55
69624;BME280;56843;52.020;5.670;2022-10-16T04:35:57;100878.28;;;10.23;92.17
69624;BME280;56843;52.020;5.670;2022-10-16T04:37:28;100885.50;;;10.23;92.67
69624;BME280;56843;52.020;5.670;2022-10-16T04:38:59;100886.28;;;10.23;92.34
69624;BME280;56843;52.020;5.670;2022-10-16T04:40:29;100880.47;;;10.21;92.40
69624;BME280;56843;52.020;5.670;2022-10-16T04:42:03;100889.09;;;10.18;92.36
69624;BME280;56843;52.020;5.670;2022-10-16T04:43:33;100883.59;;;10.15;92.69
69624;BME280;56843;52.020;5.670;2022-10-16T04:45:05;100891.16;;;10.13;92.86
69624;BME280;56843;52.020;5.670;2022-10-16T04:46:35;100893.81;;;10.13;92.53
69624;BME280;56843;52.020;5.670;2022-10-16T04:48:06;100894.13;;;10.11;92.63
69624;BME280;56843;52.020;5.670;2022-10-16T04:49:36;100890.22;;;10.09;92.75
69624;BME280;56843;52.020;5.670;2022-10-16T04:51:07;100896.63;;;10.08;92.84
69624;BME280;56843;52.020;5.670;2022-10-16T04:52:37;100895.38;;;10.05;92.72
69624;BME280;56843;52.020;5.670;2022-10-16T04:54:09;100891.47;;;10.03;92.96
69624;BME280;56843;52.020;5.670;2022-10-16T04:55:40;100895.88;;;9.99;92.80
69624;BME280;56843;52.020;5.670;2022-10-16T04:57:11;100894.94;;;9.95;92.97
69624;BME280;56843;52.020;5.670;2022-10-16T04:58:42;100900.88;;;9.92;93.21
69624;BME280;56843;52.020;5.670;2022-10-16T05:00:12;100892.75;;;9.88;93.32
69624;BME280;56843;52.020;5.670;2022-10-16T05:01:44;100902.47;;;9.84;93.29
69624;BME280;56843;52.020;5.670;2022-10-16T05:03:14;100912.97;;;9.81;93.26
69624;BME280;56843;52.020;5.670;2022-10-16T05:04:45;100912.50;;;9.79;93.35
69624;BME280;56843;52.020;5.670;2022-10-16T05:06:16;100913.16;;;9.76;93.31
69624;BME280;56843;52.020;5.670;2022-10-16T05:07:47;100926.00;;;9.74;93.50
69624;BME280;56843;52.020;5.670;2022-10-16T05:09:17;100917.84;;;9.70;93.63
69624;BME280;56843;52.020;5.670;2022-10-16T05:10:48;100923.50;;;9.69;93.51
69624;BME280;56843;52.020;5.670;2022-10-16T05:12:18;100928.34;;;9.67;93.49
69624;BME280;56843;52.020;5.670;2022-10-16T05:13:49;100928.19;;;9.63;93.55
69624;BME280;56843;52.020;5.670;2022-10-16T05:15:20;100929.63;;;9.60;93.79
69624;BME280;56843;52.020;5.670;2022-10-16T05:16:50;100929.44;;;9.57;93.64
69624;BME280;56843;52.020;5.670;2022-10-16T05:18:22;100929.75;;;9.55;93.83
69624;BME280;56843;52.020;5.670;2022-10-16T05:19:52;100934.91;;;9.52;93.72
69624;BME280;56843;52.020;5.670;2022-10-16T05:21:22;100940.09;;;9.48;93.77
69624;BME280;56843;52.020;5.670;2022-10-16T05:22:53;100940.69;;;9.45;94.14
69624;BME280;56843;52.020;5.670;2022-10-16T05:24:23;100937.09;;;9.41;94.05
69624;BME280;56843;52.020;5.670;2022-10-16T05:25:55;100941.94;;;9.39;93.88
69624;BME280;56843;52.020;5.670;2022-10-16T05:27:28;100943.34;;;9.37;94.05
69624;BME280;56843;52.020;5.670;2022-10-16T05:28:58;100947.41;;;9.34;94.20
69624;BME280;56843;52.020;5.670;2022-10-16T05:30:29;100950.41;;;9.33;94.11
69624;BME280;56843;52.020;5.670;2022-10-16T05:31:59;100947.59;;;9.29;94.39
69624;BME280;56843;52.020;5.670;2022-10-16T05:33:30;100954.31;;;9.27;94.15
69624;BME280;56843;52.020;5.670;2022-10-16T05:35:00;100957.28;;;9.25;94.34
69624;BME280;56843;52.020;5.670;2022-10-16T05:36:31;100962.59;;;9.25;94.49
69624;BME280;56843;52.020;5.670;2022-10-16T05:38:01;100968.25;;;9.24;94.42
69624;BME280;56843;52.020;5.670;2022-10-16T05:39:32;100966.38;;;9.24;94.31
69624;BME280;56843;52.020;5.670;2022-10-16T05:41:03;100971.09;;;9.27;94.50
69624;BME280;56843;52.020;5.670;2022-10-16T05:42:34;100970.47;;;9.30;94.39
69624;BME280;56843;52.020;5.670;2022-10-16T05:44:05;100966.88;;;9.35;94.55
69624;BME280;56843;52.020;5.670;2022-10-16T05:45:36;100967.53;;;9.40;94.41
69624;BME280;56843;52.020;5.670;2022-10-16T05:47:06;100969.75;;;9.47;94.17
69624;BME280;56843;52.020;5.670;2022-10-16T05:48:36;100975.22;;;9.50;94.05
69624;BME280;56843;52.020;5.670;2022-10-16T05:50:07;100973.50;;;9.54;93.97
69624;BME280;56843;52.020;5.670;2022-10-16T05:51:38;100973.97;;;9.56;93.91
69624;BME280;56843;52.020;5.670;2022-10-16T05:53:08;100974.44;;;9.58;93.41
69624;BME280;56843;52.020;5.670;2022-10-16T05:54:39;100983.22;;;9.59;93.51
69624;BME280;56843;52.020;5.670;2022-10-16T05:56:10;100980.28;;;9.60;93.47
69624;BME280;56843;52.020;5.670;2022-10-16T05:57:42;100986.69;;;9.59;93.54
69624;BME280;56843;52.020;5.670;2022-10-16T05:59:13;100977.91;;;9.59;93.34
69624;BME280;56843;52.020;5.670;2022-10-16T06:00:43;100986.22;;;9.57;93.75
69624;BME280;56843;52.020;5.670;2022-10-16T06:02:14;100984.03;;;9.59;93.78
69624;BME280;56843;52.020;5.670;2022-10-16T06:03:44;100984.97;;;9.63;93.73
69624;BME280;56843;52.020;5.670;2022-10-16T06:05:15;100985.63;;;9.69;93.97
69624;BME280;56843;52.020;5.670;2022-10-16T06:06:45;100991.09;;;9.73;93.25
69624;BME280;56843;52.020;5.670;2022-10-16T06:08:16;100990.16;;;9.77;93.39
69624;BME280;56843;52.020;5.670;2022-10-16T06:09:51;100998.03;;;9.82;93.16
69624;BME280;56843;52.020;5.670;2022-10-16T06:11:24;100998.97;;;9.86;93.13
69624;BME280;56843;52.020;5.670;2022-10-16T06:12:55;101008.22;;;9.89;92.80
69624;BME280;56843;52.020;5.670;2022-10-16T06:14:26;101004.94;;;9.92;92.93
69624;BME280;56843;52.020;5.670;2022-10-16T06:15:58;101009.66;;;9.95;93.10
69624;BME280;56843;52.020;5.670;2022-10-16T06:17:28;101005.56;;;9.97;93.34
69624;BME280;56843;52.020;5.670;2022-10-16T06:18:59;101006.19;;;10.03;92.77
69624;BME280;56843;52.020;5.670;2022-10-16T06:20:30;101005.91;;;10.04;92.62
69624;BME280;56843;52.020;5.670;2022-10-16T06:22:00;101006.84;;;10.08;92.64
69624;BME280;56843;52.020;5.670;2022-10-16T06:23:32;101014.50;;;10.10;92.65
69624;BME280;56843;52.020;5.670;2022-10-16T06:25:03;101020.78;;;10.14;92.55
69624;BME280;56843;52.020;5.670;2022-10-16T06:26:34;101020.19;;;10.17;92.37
69624;BME280;56843;52.020;5.670;2022-10-16T06:28:04;101026.81;;;10.19;92.37
69624;BME280;56843;52.020;5.670;2022-10-16T06:29:35;101028.06;;;10.22;92.56
69624;BME280;56843;52.020;5.670;2022-10-16T06:31:06;101020.19;;;10.25;92.46
69624;BME280;56843;52.020;5.670;2022-10-16T06:32:37;101024.13;;;10.28;92.47
69624;BME280;56843;52.020;5.670;2022-10-16T06:34:09;101029.78;;;10.35;92.36
69624;BME280;56843;52.020;5.670;2022-10-16T06:35:40;101032.59;;;10.39;92.23
69624;BME280;56843;52.020;5.670;2022-10-16T06:37:11;101032.31;;;10.40;92.12
69624;BME280;56843;52.020;5.670;2022-10-16T06:38:42;101044.72;;;10.45;92.03
69624;BME280;56843;52.020;5.670;2022-10-16T06:40:13;101042.19;;;10.48;91.81
69624;BME280;56843;52.020;5.670;2022-10-16T06:41:44;101052.25;;;10.51;91.50
69624;BME280;56843;52.020;5.670;2022-10-16T06:43:24;101046.56;;;10.53;92.02
69624;BME280;56843;52.020;5.670;2022-10-16T06:44:55;101047.03;;;10.55;92.06
69624;BME280;56843;52.020;5.670;2022-10-16T06:46:26;101053.66;;;10.57;91.87
69624;BME280;56843;52.020;5.670;2022-10-16T06:47:56;101056.78;;;10.59;91.80
69624;BME280;56843;52.020;5.670;2022-10-16T06:49:27;101052.38;;;10.63;91.72
69624;BME280;56843;52.020;5.670;2022-10-16T06:51:09;101057.38;;;10.65;91.77
69624;BME280;56843;52.020;5.670;2022-10-16T06:52:40;101068.56;;;10.67;92.01
69624;BME280;56843;52.020;5.670;2022-10-16T06:54:10;101064.16;;;10.71;91.75
69624;BME280;56843;52.020;5.670;2022-10-16T06:55:41;101065.41;;;10.73;91.47
69624;BME280;56843;52.020;5.670;2022-10-16T06:57:11;101060.53;;;10.75;91.64
69624;BME280;56843;52.020;5.670;2022-10-16T06:58:42;101071.03;;;10.80;91.59
69624;BME280;56843;52.020;5.670;2022-10-16T07:00:13;101069.31;;;10.84;91.20
69624;BME280;56843;52.020;5.670;2022-10-16T07:01:44;101076.84;;;10.91;91.25
69624;BME280;56843;52.020;5.670;2022-10-16T07:03:14;101085.94;;;10.98;91.24
69624;BME280;56843;52.020;5.670;2022-10-16T07:04:45;101075.72;;;11.00;91.06
69624;BME280;56843;52.020;5.670;2022-10-16T07:06:18;101089.72;;;11.06;91.21
69624;BME280;56843;52.020;5.670;2022-10-16T07:07:48;101088.75;;;11.11;90.75
69624;BME280;56843;52.020;5.670;2022-10-16T07:09:27;101097.38;;;11.16;90.82
69624;BME280;56843;52.020;5.670;2022-10-16T07:11:11;101105.22;;;11.21;90.83
69624;BME280;56843;52.020;5.670;2022-10-16T07:12:42;101116.53;;;11.27;90.77
69624;BME280;56843;52.020;5.670;2022-10-16T07:14:18;101111.47;;;11.34;90.82
69624;BME280;56843;52.020;5.670;2022-10-16T07:15:48;101107.06;;;11.38;90.57
69624;BME280;56843;52.020;5.670;2022-10-16T07:17:20;101112.56;;;11.41;90.25
69624;BME280;56843;52.020;5.670;2022-10-16T07:18:50;101113.03;;;11.43;90.37
69624;BME280;56843;52.020;5.670;2022-10-16T07:20:23;101120.41;;;11.46;90.47
69624;BME280;56843;52.020;5.670;2022-10-16T07:21:53;101126.38;;;11.52;90.04
69624;BME280;56843;52.020;5.670;2022-10-16T07:23:24;101132.97;;;11.54;90.22
69624;BME280;56843;52.020;5.670;2022-10-16T07:24:57;101133.13;;;11.58;89.82
69624;BME280;56843;52.020;5.670;2022-10-16T07:26:40;101131.88;;;11.64;90.09
69624;BME280;56843;52.020;5.670;2022-10-16T07:28:11;101130.13;;;11.68;89.66
69624;BME280;56843;52.020;5.670;2022-10-16T07:29:41;101151.66;;;11.71;89.45
69624;BME280;56843;52.020;5.670;2022-10-16T07:31:16;101156.69;;;11.73;89.55
69624;BME280;56843;52.020;5.670;2022-10-16T07:32:46;101155.13;;;11.72;89.91
69624;BME280;56843;52.020;5.670;2022-10-16T07:34:18;101157.47;;;11.73;89.52
69624;BME280;56843;52.020;5.670;2022-10-16T07:35:52;101158.25;;;11.74;89.90
69624;BME280;56843;52.020;5.670;2022-10-16T07:37:23;101159.50;;;11.76;89.70
69624;BME280;56843;52.020;5.670;2022-10-16T07:38:54;101158.53;;;11.81;89.77
69624;BME280;56843;52.020;5.670;2022-10-16T07:40:25;101160.72;;;11.88;89.49
69624;BME280;56843;52.020;5.670;2022-10-16T07:41:57;101155.44;;;12.00;89.39
69624;BME280;56843;52.020;5.670;2022-10-16T07:43:29;101162.94;;;12.15;88.96
69624;BME280;56843;52.020;5.670;2022-10-16T07:45:00;101158.47;;;12.27;88.71
69624;BME280;56843;52.020;5.670;2022-10-16T07:46:31;101158.41;;;12.36;88.37
69624;BME280;56843;52.020;5.670;2022-10-16T07:48:01;101155.53;;;12.41;88.12
69624;BME280;56843;52.020;5.670;2022-10-16T07:49:32;101158.34;;;12.44;88.10
69624;BME280;56843;52.020;5.670;2022-10-16T07:51:05;101161.16;;;12.48;87.87
69624;BME280;56843;52.020;5.670;2022-10-16T07:52:36;101163.50;;;12.49;87.83
69624;BME280;56843;52.020;5.670;2022-10-16T07:54:08;101152.16;;;12.52;87.43
69624;BME280;56843;52.020;5.670;2022-10-16T07:55:39;101156.84;;;12.55;87.54
69624;BME280;56843;52.020;5.670;2022-10-16T07:57:09;101165.16;;;12.63;87.64
69624;BME280;56843;52.020;5.670;2022-10-16T07:58:40;101164.50;;;12.66;87.54
69624;BME280;56843;52.020;5.670;2022-10-16T08:00:11;101180.69;;;12.69;87.34
69624;BME280;56843;52.020;5.670;2022-10-16T08:01:43;101176.47;;;12.68;87.07
69624;BME280;56843;52.020;5.670;2022-10-16T08:03:14;101184.16;;;12.70;87.33
69624;BME280;56843;52.020;5.670;2022-10-16T08:04:46;101192.66;;;12.72;87.15
69624;BME280;56843;52.020;5.670;2022-10-16T08:06:18;101187.94;;;12.69;87.27
69624;BME280;56843;52.020;5.670;2022-10-16T08:07:52;101185.00;;;12.62;87.44
69624;BME280;56843;52.020;5.670;2022-10-16T08:09:25;101194.03;;;12.57;87.10
69624;BME280;56843;52.020;5.670;2022-10-16T08:11:03;101198.91;;;12.55;87.40
69624;BME280;56843;52.020;5.670;2022-10-16T08:12:34;101203.28;;;12.60;87.46
69624;BME280;56843;52.020;5.670;2022-10-16T08:14:07;101203.75;;;12.62;87.25
69624;BME280;56843;52.020;5.670;2022-10-16T08:15:38;101198.41;;;12.62;87.48
69624;BME280;56843;52.020;5.670;2022-10-16T08:17:09;101210.88;;;12.57;87.45